Time;durP1;ratioP1;P1;durP2;ratioP2;P2;SDS_P1;SDS_P2;PMS_P1;PMS_P2;Temp;Humidity;BMP_temperature;BMP_pressure;BME280_temperature;BME280_humidity;BME280_pressure;Samples;Min_cycle;Max_cycle;Signal;HPM_P1;HPM_P2
2021/03/06 00:02:20;;;;;;;;;;;;;;;3.53;59.36;100813.59;4405308;32;19996;-90
2021/03/06 00:04:46;;;;;;;;;;;;;;;3.34;59.36;100830.50;4405519;32;19981;-90
2021/03/06 00:07:11;;;;;;;;;;;;;;;3.30;59.35;100834.72;4393883;32;20259;-89
2021/03/06 00:09:37;;;;;;;;;;;;;;;3.39;59.37;100834.88;4393012;32;20027;-90
2021/03/06 00:12:05;;;;;;;;;;;;;;;3.46;59.38;100838.38;4405344;32;20023;-90
2021/03/06 00:14:30;;;;;;;;;;;;;;;3.49;59.37;100828.12;4405273;32;20330;-90
2021/03/06 00:16:56;;;;;;;;;;;;;;;3.41;59.37;100839.16;4394475;32;20055;-90
2021/03/06 00:19:21;;;;;;;;;;;;;;;3.60;59.37;100833.44;4394036;32;20410;-90
2021/03/06 00:21:46;;;;;;;;;;;;;;;3.60;59.37;100843.72;4408513;32;20041;-90
2021/03/06 00:24:11;;;;;;;;;;;;;;;3.48;59.37;100848.69;4406843;32;20315;-90
2021/03/06 00:26:36;;;;;;;;;;;;;;;3.51;59.36;100856.47;4394465;32;20278;-89
2021/03/06 00:29:02;;;;;;;;;;;;;;;3.42;59.37;100848.62;4407216;32;20003;-89
2021/03/06 00:31:27;;;;;;;;;;;;;;;3.31;59.36;100851.91;4407059;32;19981;-89
2021/03/06 00:33:52;;;;;;;;;;;;;;;3.34;59.36;100856.22;4394211;32;20009;-89
2021/03/06 00:36:17;;;;;;;;;;;;;;;3.26;59.36;100860.37;4404748;32;20269;-89
2021/03/06 00:38:43;;;;;;;;;;;;;;;3.16;59.34;100861.94;4411920;32;20038;-89
2021/03/06 00:41:08;;;;;;;;;;;;;;;3.13;59.35;100872.19;4438595;32;22000;-90
2021/03/06 00:43:33;;;;;;;;;;;;;;;3.14;59.35;100873.06;4411942;32;20302;-90
2021/03/06 00:45:58;;;;;;;;;;;;;;;3.17;59.34;100873.97;4411937;32;20072;-90
2021/03/06 00:48:24;;;;;;;;;;;;;;;3.16;59.35;100873.94;4424579;32;20322;-89
2021/03/06 00:50:49;;;;;;;;;;;;;;;3.12;59.35;100870.47;4437017;32;22099;-89
2021/03/06 00:53:14;;;;;;;;;;;;;;;3.26;59.36;100866.38;4424364;32;20020;-90
2021/03/06 00:55:39;;;;;;;;;;;;;;;3.14;59.35;100884.22;4411412;32;21001;-90
2021/03/06 00:58:05;;;;;;;;;;;;;;;3.18;59.35;100882.56;4411578;32;20043;-89
2021/03/06 01:00:30;;;;;;;;;;;;;;;3.20;59.35;100880.87;4412288;32;19985;-89
2021/03/06 01:02:55;;;;;;;;;;;;;;;3.31;59.35;100881.88;4411787;32;20014;-90
2021/03/06 01:05:21;;;;;;;;;;;;;;;3.37;59.36;100893.16;4411425;32;22932;-90
2021/03/06 01:07:46;;;;;;;;;;;;;;;3.41;59.37;100896.66;4411905;32;19989;-90
2021/03/06 01:10:13;;;;;;;;;;;;;;;3.48;59.37;100903.62;4424655;32;20004;-90
2021/03/06 01:12:38;;;;;;;;;;;;;;;3.46;59.36;100907.00;4411570;32;19999;-89
2021/03/06 01:15:04;;;;;;;;;;;;;;;3.45;59.37;100903.56;4411094;32;25999;-89
2021/03/06 01:17:29;;;;;;;;;;;;;;;3.63;59.38;100900.41;4424296;32;20015;-90
2021/03/06 01:19:54;;;;;;;;;;;;;;;3.58;59.37;100905.50;4424171;32;22459;-90
2021/03/06 01:22:19;;;;;;;;;;;;;;;3.54;59.38;100908.84;4424835;32;19969;-90
2021/03/06 01:24:44;;;;;;;;;;;;;;;3.48;59.37;100916.47;4411299;32;24038;-90
2021/03/06 01:27:10;;;;;;;;;;;;;;;3.48;59.37;100921.63;4411354;32;23031;-90
2021/03/06 01:29:35;;;;;;;;;;;;;;;3.54;59.38;100921.72;4424631;32;20042;-90
2021/03/06 01:32:00;;;;;;;;;;;;;;;3.57;59.37;100928.66;4424274;32;20005;-90
2021/03/06 01:34:25;;;;;;;;;;;;;;;3.37;59.36;100934.34;4424322;32;20001;-90
2021/03/06 01:36:51;;;;;;;;;;;;;;;3.37;59.36;100939.50;4411537;32;20008;-90
2021/03/06 01:39:16;;;;;;;;;;;;;;;3.49;59.37;100932.78;4424248;32;20336;-90
2021/03/06 01:41:41;;;;;;;;;;;;;;;3.35;59.36;100942.88;4424645;32;19984;-90
2021/03/06 01:44:06;;;;;;;;;;;;;;;3.31;59.35;100941.06;4411473;32;20796;-90
2021/03/06 01:46:32;;;;;;;;;;;;;;;3.27;59.36;100940.16;4411359;32;20348;-89
2021/03/06 01:48:57;;;;;;;;;;;;;;;3.23;59.35;100943.53;4411594;32;20336;-89
2021/03/06 01:51:22;;;;;;;;;;;;;;;3.24;59.36;100940.12;4411276;32;23696;-90
2021/03/06 01:53:47;;;;;;;;;;;;;;;3.20;59.35;100940.91;4411174;32;23252;-90
2021/03/06 01:56:12;;;;;;;;;;;;;;;3.09;59.34;100952.75;4411268;32;20019;-90
2021/03/06 01:58:38;;;;;;;;;;;;;;;3.14;59.35;100952.81;4411143;32;19984;-89
2021/03/06 02:01:03;;;;;;;;;;;;;;;2.99;59.34;100953.41;4411433;32;23614;-89
2021/03/06 02:03:28;;;;;;;;;;;;;;;3.06;59.34;100956.09;4411658;32;20046;-90
2021/03/06 02:05:53;;;;;;;;;;;;;;;3.04;59.34;100952.63;4411207;32;21910;-89
2021/03/06 02:08:18;;;;;;;;;;;;;;;3.07;59.34;100965.53;4410761;32;27584;-90
2021/03/06 02:10:44;;;;;;;;;;;;;;;2.92;59.33;100957.56;4411221;32;20265;-89
2021/03/06 02:13:41;;;;;;;;;;;;;;;2.78;59.32;100957.31;4423843;32;20403;-90
2021/03/06 02:16:11;;;;;;;;;;;;;;;2.86;59.33;100959.19;4382050;32;19989;-89
2021/03/06 02:18:46;;;;;;;;;;;;;;;2.92;59.33;100961.84;4424199;32;19995;-90
2021/03/06 02:21:30;;;;;;;;;;;;;;;2.92;59.33;100959.28;4411410;32;19976;-90
2021/03/06 02:23:56;;;;;;;;;;;;;;;3.00;59.34;100961.12;4438130;32;20316;-90
2021/03/06 02:26:33;;;;;;;;;;;;;;;2.94;59.33;100962.75;4424527;32;20005;-89
2021/03/06 02:29:02;;;;;;;;;;;;;;;2.92;59.33;100960.16;4424899;32;20367;-90
2021/03/06 02:31:28;;;;;;;;;;;;;;;2.90;59.33;100972.13;4411307;32;19989;-89
2021/03/06 02:33:58;;;;;;;;;;;;;;;2.79;59.32;100976.16;4411134;32;20341;-90
2021/03/06 02:36:23;;;;;;;;;;;;;;;2.63;59.32;100974.16;4411163;32;20365;-90
2021/03/06 02:38:49;;;;;;;;;;;;;;;2.73;59.33;100971.78;4410059;32;24867;-90
2021/03/06 02:41:14;;;;;;;;;;;;;;;2.33;59.30;100977.81;4423848;32;20048;-90
2021/03/06 02:43:39;;;;;;;;;;;;;;;2.54;59.31;100984.25;4423574;32;20506;-90
2021/03/06 02:46:05;;;;;;;;;;;;;;;2.63;59.32;100982.75;4411088;32;20043;-89
2021/03/06 02:48:30;;;;;;;;;;;;;;;2.64;59.33;100979.34;4410802;32;19984;-89
2021/03/06 02:50:55;;;;;;;;;;;;;;;2.50;59.31;100982.44;4424139;32;19989;-89
2021/03/06 02:53:21;;;;;;;;;;;;;;;2.28;59.29;100994.84;4423837;32;19984;-90
2021/03/06 02:55:46;;;;;;;;;;;;;;;2.40;59.30;101001.97;4424363;32;19996;-89
2021/03/06 02:58:24;;;;;;;;;;;;;;;2.30;59.30;101007.72;4423898;32;20018;-90
2021/03/06 03:01:02;;;;;;;;;;;;;;;2.04;59.28;101018.28;4437982;32;19991;-90
2021/03/06 03:03:27;;;;;;;;;;;;;;;2.02;59.28;101017.41;4423859;32;20008;-90
2021/03/06 03:05:56;;;;;;;;;;;;;;;2.08;59.29;101024.34;4423569;32;20041;-89
2021/03/06 03:08:28;;;;;;;;;;;;;;;2.10;59.29;101026.13;4437571;32;19991;-90
2021/03/06 03:10:59;;;;;;;;;;;;;;;2.04;59.28;101028.56;4410917;32;19988;-90
2021/03/06 03:13:35;;;;;;;;;;;;;;;1.99;59.29;101030.16;4410588;32;20649;-89
2021/03/06 03:16:09;;;;;;;;;;;;;;;1.97;59.28;101029.25;4410946;32;20645;-89
2021/03/06 03:18:40;;;;;;;;;;;;;;;1.93;59.28;101037.75;4410859;32;19999;-90
2021/03/06 03:21:06;;;;;;;;;;;;;;;1.75;59.27;101050.13;4423957;32;19980;-89
2021/03/06 03:23:34;;;;;;;;;;;;;;;1.71;59.27;101048.31;4423650;32;19977;-89
2021/03/06 03:25:59;;;;;;;;;;;;;;;1.67;59.26;101056.78;4423485;32;19988;-90
2021/03/06 03:28:25;;;;;;;;;;;;;;;1.54;59.25;101059.03;4410552;32;20026;-89
2021/03/06 03:30:50;;;;;;;;;;;;;;;1.54;59.25;101060.72;4423573;32;20000;-89
2021/03/06 03:33:16;;;;;;;;;;;;;;;1.46;59.25;101064.81;4410150;32;24954;-89
2021/03/06 03:35:41;;;;;;;;;;;;;;;1.18;59.24;101069.22;4424363;32;20276;-89
2021/03/06 03:38:06;;;;;;;;;;;;;;;1.34;59.25;101067.03;4411703;32;19977;-89
2021/03/06 03:40:32;;;;;;;;;;;;;;;1.27;59.24;101076.25;4410901;32;19989;-89
2021/03/06 03:42:58;;;;;;;;;;;;;;;1.15;59.23;101070.78;4410725;32;19996;-89
2021/03/06 03:45:23;;;;;;;;;;;;;;;1.13;59.23;101070.75;4437494;32;19984;-89
2021/03/06 03:47:48;;;;;;;;;;;;;;;1.01;59.22;101074.69;4423200;32;19999;-89
2021/03/06 03:50:14;;;;;;;;;;;;;;;0.88;59.21;101089.72;4438053;32;20006;-89
2021/03/06 03:52:39;;;;;;;;;;;;;;;0.90;59.22;101084.63;4439211;32;20016;-89
2021/03/06 03:55:06;;;;;;;;;;;;;;;1.00;59.23;101084.06;4414095;32;20435;-89
2021/03/06 03:57:31;;;;;;;;;;;;;;;1.01;59.22;101084.94;4425145;32;19999;-89
2021/03/06 03:59:56;;;;;;;;;;;;;;;1.03;59.22;101081.59;4412010;32;20407;-88
2021/03/06 04:02:22;;;;;;;;;;;;;;;0.96;59.22;101083.97;4411761;32;27746;-88
2021/03/06 04:04:47;;;;;;;;;;;;;;;0.97;59.23;101086.56;4412317;32;20019;-88
2021/03/06 04:07:13;;;;;;;;;;;;;;;0.89;59.21;101095.72;4412224;32;19981;-89
2021/03/06 04:09:38;;;;;;;;;;;;;;;0.90;59.22;101095.75;4411746;32;22831;-89
2021/03/06 04:12:03;;;;;;;;;;;;;;;1.03;59.22;101096.97;4411853;32;24997;-88
2021/03/06 04:14:28;;;;;;;;;;;;;;;0.95;59.22;101095.00;4412206;32;20263;-88
2021/03/06 04:16:54;;;;;;;;;;;;;;;0.90;59.22;101098.31;4411723;32;20337;-89
2021/03/06 04:19:19;;;;;;;;;;;;;;;0.97;59.23;101096.81;4412095;32;19961;-89
2021/03/06 04:21:44;;;;;;;;;;;;;;;0.99;59.22;101107.97;4424995;32;20313;-89
2021/03/06 04:24:09;;;;;;;;;;;;;;;0.84;59.21;101110.09;4424739;32;20320;-88
2021/03/06 04:26:35;;;;;;;;;;;;;;;0.99;59.22;101114.81;4425046;32;20023;-88
2021/03/06 04:29:00;;;;;;;;;;;;;;;0.85;59.22;101117.81;4411554;32;26610;-90
2021/03/06 04:31:25;;;;;;;;;;;;;;;0.95;59.22;101115.50;4424959;32;19980;-89
2021/03/06 04:33:50;;;;;;;;;;;;;;;1.03;59.22;101120.06;4424655;32;19996;-90
2021/03/06 04:36:16;;;;;;;;;;;;;;;0.96;59.23;101118.16;4411485;32;26144;-90
2021/03/06 04:38:41;;;;;;;;;;;;;;;1.04;59.23;101124.34;4424793;32;20006;-90
2021/03/06 04:41:06;;;;;;;;;;;;;;;1.04;59.24;101129.50;4411234;32;31070;-90
2021/03/06 04:43:31;;;;;;;;;;;;;;;1.05;59.23;101132.91;4411901;32;20098;-89
2021/03/06 04:45:56;;;;;;;;;;;;;;;1.09;59.23;101132.19;4424250;32;20190;-89
2021/03/06 04:48:22;;;;;;;;;;;;;;;0.99;59.22;101128.50;4411763;32;19993;-88
2021/03/06 04:50:47;;;;;;;;;;;;;;;0.86;59.22;101126.38;4411331;32;25409;-89
2021/03/06 04:53:12;;;;;;;;;;;;;;;0.81;59.21;101138.19;4438246;32;28682;-89
2021/03/06 04:55:37;;;;;;;;;;;;;;;0.83;59.22;101132.28;4438751;32;20325;-89
2021/03/06 04:58:02;;;;;;;;;;;;;;;0.78;59.21;101135.56;4411759;32;19969;-90
2021/03/06 05:00:28;;;;;;;;;;;;;;;0.74;59.21;101132.03;4411020;32;26676;-90
2021/03/06 05:02:53;;;;;;;;;;;;;;;0.74;59.21;101134.59;4411795;32;20004;-89
2021/03/06 05:05:18;;;;;;;;;;;;;;;0.74;59.20;101133.72;4424664;32;19984;-89
2021/03/06 05:07:49;;;;;;;;;;;;;;;0.71;59.21;101134.50;4424569;32;20013;-90
2021/03/06 05:10:16;;;;;;;;;;;;;;;0.75;59.21;101138.91;4424920;32;19985;-89
2021/03/06 05:12:41;;;;;;;;;;;;;;;0.64;59.20;101135.13;4412101;32;19988;-90
2021/03/06 05:15:17;;;;;;;;;;;;;;;0.64;59.20;101142.81;4411702;32;20301;-91
2021/03/06 05:17:42;;;;;;;;;;;;;;;0.54;59.20;101145.94;4424894;32;20044;-90
2021/03/06 05:20:14;;;;;;;;;;;;;;;0.54;59.20;101151.06;4411742;32;20017;-90
2021/03/06 05:22:45;;;;;;;;;;;;;;;0.68;59.21;101151.47;4424573;32;20003;-90
2021/03/06 05:25:13;;;;;;;;;;;;;;;0.56;59.20;101155.41;4438598;32;20015;-90
2021/03/06 05:27:41;;;;;;;;;;;;;;;0.67;59.21;101153.16;4411960;32;19968;-90
2021/03/06 05:30:10;;;;;;;;;;;;;;;0.48;59.20;101162.00;4438718;32;19988;-90
2021/03/06 05:32:36;;;;;;;;;;;;;;;0.54;59.20;101156.19;4425252;32;19996;-89
2021/03/06 05:35:01;;;;;;;;;;;;;;;0.70;59.21;101163.50;4424108;32;19980;-89
2021/03/06 05:37:30;;;;;;;;;;;;;;;0.55;59.20;101170.72;4424650;32;19985;-89
2021/03/06 05:39:55;;;;;;;;;;;;;;;0.77;59.21;101170.56;4412050;32;20352;-89
2021/03/06 05:42:20;;;;;;;;;;;;;;;0.63;59.20;101176.94;4411588;32;20008;-90
2021/03/06 05:44:45;;;;;;;;;;;;;;;0.66;59.22;101174.47;4411860;32;20375;-90
2021/03/06 05:47:14;;;;;;;;;;;;;;;0.73;59.21;101170.44;4411600;32;20034;-90
2021/03/06 05:49:39;;;;;;;;;;;;;;;0.72;59.21;101172.13;4438682;32;20016;-90
2021/03/06 05:52:05;;;;;;;;;;;;;;;0.66;59.22;101174.47;4411578;32;20327;-90
2021/03/06 05:54:31;;;;;;;;;;;;;;;0.81;59.21;101177.53;4411601;32;20007;-90
2021/03/06 05:56:58;;;;;;;;;;;;;;;1.05;59.23;101182.50;4438745;32;20028;-89
2021/03/06 05:59:24;;;;;;;;;;;;;;;0.76;59.22;101186.78;4412583;32;20028;-89
2021/03/06 06:01:49;;;;;;;;;;;;;;;0.96;59.22;101181.38;4412083;32;23488;-89
2021/03/06 06:04:14;;;;;;;;;;;;;;;0.99;59.23;101186.59;4412186;32;20328;-90
2021/03/06 06:06:43;;;;;;;;;;;;;;;0.91;59.22;101189.78;4424075;32;20318;-90
2021/03/06 06:09:08;;;;;;;;;;;;;;;1.15;59.23;101192.19;4424251;32;20337;-89
2021/03/06 06:11:51;;;;;;;;;;;;;;;1.18;59.23;101186.28;4411351;32;19997;-89
2021/03/06 06:14:16;;;;;;;;;;;;;;;1.19;59.24;101195.75;4410663;32;19981;-88
2021/03/06 06:16:41;;;;;;;;;;;;;;;1.41;59.26;101203.19;4411387;32;20458;-90
2021/03/06 06:19:07;;;;;;;;;;;;;;;1.58;59.26;101213.94;4410924;32;26759;-90
2021/03/06 06:21:44;;;;;;;;;;;;;;;1.67;59.26;101214.22;4411198;32;20010;-90
2021/03/06 06:24:10;;;;;;;;;;;;;;;1.75;59.27;101214.41;4424299;32;20059;-91
2021/03/06 06:26:36;;;;;;;;;;;;;;;1.94;59.28;101214.06;4411606;32;19969;-90
2021/03/06 06:29:01;;;;;;;;;;;;;;;1.94;59.28;101224.34;4424114;32;19995;-90
2021/03/06 06:31:26;;;;;;;;;;;;;;;2.03;59.28;101228.84;4423843;32;20004;-90
2021/03/06 06:33:52;;;;;;;;;;;;;;;2.14;59.29;101225.75;4411182;32;20003;-90
2021/03/06 06:36:34;;;;;;;;;;;;;;;2.35;59.30;101229.66;4424192;32;19969;-90
2021/03/06 06:38:59;;;;;;;;;;;;;;;2.28;59.29;101246.63;4411222;32;20011;-90
2021/03/06 06:41:24;;;;;;;;;;;;;;;2.23;59.30;101242.22;4423971;32;20000;-90
2021/03/06 06:43:49;;;;;;;;;;;;;;;2.39;59.31;101246.91;4411309;32;20355;-89
2021/03/06 06:46:30;;;;;;;;;;;;;;;2.34;59.30;101244.19;4423661;32;21476;-90
2021/03/06 06:48:56;;;;;;;;;;;;;;;2.42;59.30;101244.41;4438152;32;20000;-89
2021/03/06 06:51:21;;;;;;;;;;;;;;;2.43;59.31;101257.31;4411142;32;20109;-90
2021/03/06 06:53:46;;;;;;;;;;;;;;;2.44;59.31;101253.91;4423610;32;24478;-90
2021/03/06 06:56:21;;;;;;;;;;;;;;;2.50;59.32;101255.75;4410543;32;27558;-90
2021/03/06 06:58:46;;;;;;;;;;;;;;;2.50;59.32;101266.03;4423966;32;20004;-90
2021/03/06 07:01:31;;;;;;;;;;;;;;;2.33;59.30;101269.84;4423718;32;20027;-90
2021/03/06 07:03:59;;;;;;;;;;;;;;;2.49;59.31;101266.84;4411029;32;19980;-90
2021/03/06 07:06:25;;;;;;;;;;;;;;;2.28;59.29;101279.16;4411209;32;19995;-90
2021/03/06 07:08:50;;;;;;;;;;;;;;;2.46;59.31;101280.50;4438075;32;19992;-90
2021/03/06 07:11:25;;;;;;;;;;;;;;;2.68;59.32;101281.03;4410598;32;21775;-90
2021/03/06 07:13:50;;;;;;;;;;;;;;;2.68;59.32;101278.47;4423686;32;19973;-90
2021/03/06 07:16:15;;;;;;;;;;;;;;;2.89;59.34;101281.56;4410428;32;21913;-90
2021/03/06 07:18:40;;;;;;;;;;;;;;;2.94;59.33;101282.53;4423714;32;20262;-90
2021/03/06 07:21:05;;;;;;;;;;;;;;;2.90;59.34;101287.56;4410813;32;20026;-90
2021/03/06 07:23:31;;;;;;;;;;;;;;;2.86;59.33;101288.34;4410555;32;20041;-91
2021/03/06 07:25:56;;;;;;;;;;;;;;;2.91;59.33;101284.16;4410883;32;19995;-90
2021/03/06 07:28:22;;;;;;;;;;;;;;;2.83;59.33;101295.94;4410934;32;20043;-91
2021/03/06 07:30:48;;;;;;;;;;;;;;;2.64;59.33;101295.53;4437928;32;19977;-90
2021/03/06 07:33:13;;;;;;;;;;;;;;;3.08;59.34;101288.88;4410872;32;19996;-91
2021/03/06 07:35:39;;;;;;;;;;;;;;;3.22;59.35;101281.44;4404941;32;173106;-91
2021/03/06 07:38:08;;;;;;;;;;;;;;;3.39;59.36;101293.00;4410999;32;20034;-88
2021/03/06 07:40:34;;;;;;;;;;;;;;;3.54;59.38;101297.59;4423515;32;20008;-88
2021/03/06 07:42:59;;;;;;;;;;;;;;;3.69;59.38;101302.19;4437570;32;20376;-89
2021/03/06 07:45:25;;;;;;;;;;;;;;;3.84;59.39;101289.62;4411484;32;19985;-89
2021/03/06 07:47:52;;;;;;;;;;;;;;;4.00;59.40;101288.22;4411466;32;20016;-90
2021/03/06 07:50:21;;;;;;;;;;;;;;;4.15;59.40;101282.50;4411168;32;20004;-89
2021/03/06 07:52:47;;;;;;;;;;;;;;;4.04;59.40;101278.84;4411021;32;19981;-90
2021/03/06 07:55:12;;;;;;;;;;;;;;;4.38;59.42;101288.94;4410483;32;19988;-89
2021/03/06 07:57:56;;;;;;;;;;;;;;;4.39;59.41;101282.06;4439494;32;19985;-89
2021/03/06 08:00:48;;;;;;;;;;;;;;;4.50;59.43;101286.59;4439120;32;20030;-89
2021/03/06 08:03:39;;;;;;;;;;;;;;;4.43;59.43;101282.13;4421110;32;20041;-90
2021/03/06 08:06:32;;;;;;;;;;;;;;;4.34;59.41;101287.16;4435203;32;19977;-90
2021/03/06 08:08:58;;;;;;;;;;;;;;;4.45;59.42;101285.59;4410701;32;19996;-89
2021/03/06 08:11:33;;;;;;;;;;;;;;;4.58;59.43;101286.69;4410229;32;20372;-89
2021/03/06 08:13:59;;;;;;;;;;;;;;;4.85;59.44;101289.72;4422795;32;20026;-89
2021/03/06 08:16:27;;;;;;;;;;;;;;;4.89;59.44;101294.09;4410091;32;19991;-90
2021/03/06 08:18:55;;;;;;;;;;;;;;;5.18;59.47;101301.41;4422758;32;20040;-90
2021/03/06 08:21:27;;;;;;;;;;;;;;;5.45;59.48;101290.63;4408711;32;19993;-90
2021/03/06 08:24:11;;;;;;;;;;;;;;;5.53;59.49;101299.31;4410071;32;19999;-89
2021/03/06 08:26:36;;;;;;;;;;;;;;;5.41;59.48;101296.56;4437296;32;19983;-90
2021/03/06 08:29:23;;;;;;;;;;;;;;;5.20;59.47;101299.69;4410135;32;20254;-90
2021/03/06 08:32:12;;;;;;;;;;;;;;;5.53;59.49;101292.44;4436810;32;20048;-89
2021/03/06 08:34:56;;;;;;;;;;;;;;;5.70;59.50;101290.09;4422667;32;19977;-90
2021/03/06 08:37:24;;;;;;;;;;;;;;;5.91;59.51;101294.66;4438242;32;20322;-90
2021/03/06 08:39:50;;;;;;;;;;;;;;;5.94;59.50;101296.44;4439038;32;19981;-90
2021/03/06 08:42:16;;;;;;;;;;;;;;;6.05;59.51;101289.66;4424906;32;20055;-90
2021/03/06 08:44:41;;;;;;;;;;;;;;;6.14;59.52;101287.16;4412083;32;19999;-90
2021/03/06 08:47:06;;;;;;;;;;;;;;;6.18;59.52;101283.78;4424660;32;20286;-90
2021/03/06 08:49:32;;;;;;;;;;;;;;;6.24;59.52;101281.25;4424995;32;19997;-91
2021/03/06 08:51:57;;;;;;;;;;;;;;;6.08;59.52;101290.53;4412237;32;20035;-91
2021/03/06 08:54:22;;;;;;;;;;;;;;;6.11;59.51;101288.00;4412071;32;19992;-91
2021/03/06 08:56:48;;;;;;;;;;;;;;;6.14;59.52;101292.31;4424169;32;23722;-90
2021/03/06 08:59:13;;;;;;;;;;;;;;;6.26;59.52;101287.28;4412216;32;20009;-92
2021/03/06 09:01:39;;;;;;;;;;;;;;;6.42;59.54;101281.44;4411414;32;29830;-91
2021/03/06 09:04:04;;;;;;;;;;;;;;;6.47;59.54;101278.88;4412402;32;20336;-91
2021/03/06 09:06:39;;;;;;;;;;;;;;;6.74;59.55;101278.25;4425013;32;20356;-91
2021/03/06 09:09:13;;;;;;;;;;;;;;;6.92;59.56;101280.97;4412180;32;20016;-91
2021/03/06 09:11:57;;;;;;;;;;;;;;;6.90;59.56;101280.09;4425794;32;19977;-90
2021/03/06 09:14:23;;;;;;;;;;;;;;;7.02;59.57;101277.59;4425004;32;19992;-91
2021/03/06 09:16:48;;;;;;;;;;;;;;;6.99;59.57;101274.97;4424885;32;19992;-91
2021/03/06 09:19:27;;;;;;;;;;;;;;;7.24;59.58;101277.72;4411829;32;20439;-90
2021/03/06 09:22:08;;;;;;;;;;;;;;;7.26;59.58;101274.28;4425068;32;20007;-90
2021/03/06 09:24:46;;;;;;;;;;;;;;;7.03;59.57;101270.69;4412136;32;19985;-90
2021/03/06 09:27:11;;;;;;;;;;;;;;;7.19;59.58;101271.66;4411818;32;20035;-91
2021/03/06 09:29:37;;;;;;;;;;;;;;;7.39;59.58;101275.25;4411715;32;20013;-91
2021/03/06 09:32:02;;;;;;;;;;;;;;;7.64;59.60;101271.91;4411922;32;19992;-90
2021/03/06 09:34:27;;;;;;;;;;;;;;;7.46;59.59;101263.16;4411786;32;20452;-91
2021/03/06 09:36:53;;;;;;;;;;;;;;;7.54;59.59;101264.94;4424558;32;20374;-91
2021/03/06 09:39:24;;;;;;;;;;;;;;;7.78;59.61;101271.94;4438481;32;19989;-90
2021/03/06 09:41:49;;;;;;;;;;;;;;;7.83;59.61;101274.56;4424612;32;20006;-91
2021/03/06 09:44:15;;;;;;;;;;;;;;;7.91;59.61;101276.31;4423712;32;20253;-91
2021/03/06 09:46:41;;;;;;;;;;;;;;;7.74;59.61;101269.34;4411130;32;19981;-90
2021/03/06 09:49:07;;;;;;;;;;;;;;;7.78;59.61;101273.66;4410432;32;27131;-91
2021/03/06 09:51:42;;;;;;;;;;;;;;;8.06;59.62;101257.34;4424891;32;20684;-90
2021/03/06 09:54:07;;;;;;;;;;;;;;;7.93;59.62;101268.53;4412037;32;19985;-91
2021/03/06 09:56:44;;;;;;;;;;;;;;;7.87;59.62;101259.03;4411598;32;19969;-91
2021/03/06 09:59:09;;;;;;;;;;;;;;;8.03;59.62;101252.12;4410374;32;20006;-91
2021/03/06 10:01:34;;;;;;;;;;;;;;;8.32;59.64;101271.25;4411629;32;20005;-91
2021/03/06 10:04:07;;;;;;;;;;;;;;;8.23;59.64;101266.00;4411546;32;20040;-91
2021/03/06 10:06:33;;;;;;;;;;;;;;;8.23;59.64;101270.34;4411452;32;20313;-91
2021/03/06 10:09:09;;;;;;;;;;;;;;;7.93;59.62;101278.91;4411729;32;20003;-91
2021/03/06 10:11:37;;;;;;;;;;;;;;;8.02;59.62;101269.44;4425016;32;20003;-90
2021/03/06 10:14:02;;;;;;;;;;;;;;;8.17;59.63;101270.34;4424325;32;20072;-91
2021/03/06 10:16:29;;;;;;;;;;;;;;;8.23;59.64;101267.75;4411668;32;20344;-91
2021/03/06 10:18:59;;;;;;;;;;;;;;;8.14;59.63;101270.34;4411565;32;20011;-91
2021/03/06 10:21:24;;;;;;;;;;;;;;;8.25;59.64;101277.25;4411548;32;19957;-91
2021/03/06 10:23:50;;;;;;;;;;;;;;;7.99;59.63;101261.63;4411052;32;25586;-91
2021/03/06 10:26:25;;;;;;;;;;;;;;;7.94;59.62;101280.66;4411405;32;20000;-91
2021/03/06 10:28:51;;;;;;;;;;;;;;;8.25;59.64;101281.56;4411540;32;19993;-91
2021/03/06 10:31:32;;;;;;;;;;;;;;;8.35;59.64;101282.50;4411397;32;20059;-90
2021/03/06 10:33:57;;;;;;;;;;;;;;;8.52;59.66;101279.09;4424016;32;19999;-89
2021/03/06 10:36:23;;;;;;;;;;;;;;;8.40;59.65;101286.84;4424092;32;19972;-89
2021/03/06 10:38:48;;;;;;;;;;;;;;;8.29;59.63;101289.41;4424243;32;20039;-91
2021/03/06 10:41:14;;;;;;;;;;;;;;;8.19;59.63;101276.38;4411036;32;20262;-91
2021/03/06 10:43:43;;;;;;;;;;;;;;;8.20;59.63;101278.97;4411422;32;20341;-90
2021/03/06 10:46:17;;;;;;;;;;;;;;;8.31;59.64;101269.50;4411540;32;19984;-91
2021/03/06 10:48:43;;;;;;;;;;;;;;;8.40;59.65;101265.22;4423798;32;20046;-91
2021/03/06 10:51:08;;;;;;;;;;;;;;;8.64;59.66;101264.37;4438252;32;20008;-90
2021/03/06 10:53:37;;;;;;;;;;;;;;;8.83;59.68;101261.78;4424026;32;19997;-91
2021/03/06 10:56:06;;;;;;;;;;;;;;;8.82;59.67;101262.62;4411467;32;19968;-90
2021/03/06 10:58:41;;;;;;;;;;;;;;;8.71;59.66;101266.09;4411046;32;20015;-91
2021/03/06 11:01:06;;;;;;;;;;;;;;;8.87;59.67;101257.44;4411453;32;20505;-91
2021/03/06 11:03:41;;;;;;;;;;;;;;;8.93;59.67;101263.47;4411310;32;19992;-91
2021/03/06 11:06:06;;;;;;;;;;;;;;;8.61;59.66;101255.72;4411351;32;20631;-90
2021/03/06 11:08:31;;;;;;;;;;;;;;;8.60;59.66;101261.78;4411080;32;19989;-92
2021/03/06 11:10:57;;;;;;;;;;;;;;;9.00;59.68;101250.50;4423869;32;20003;-90
2021/03/06 11:13:22;;;;;;;;;;;;;;;9.06;59.68;101259.16;4437224;32;34781;-90
2021/03/06 11:15:48;;;;;;;;;;;;;;;8.85;59.67;101244.44;4410420;32;22159;-92
2021/03/06 11:18:13;;;;;;;;;;;;;;;8.66;59.67;101250.53;4410976;32;20063;-90
2021/03/06 11:20:39;;;;;;;;;;;;;;;8.73;59.66;101241.84;4410976;32;19993;-90
2021/03/06 11:23:04;;;;;;;;;;;;;;;8.90;59.68;101232.31;4411192;32;20309;-90
2021/03/06 11:25:29;;;;;;;;;;;;;;;9.20;59.69;101240.91;4410806;32;19969;-90
2021/03/06 11:27:56;;;;;;;;;;;;;;;9.36;59.70;101232.22;4410691;32;20020;-90
2021/03/06 11:30:28;;;;;;;;;;;;;;;9.35;59.70;101232.22;4411049;32;20053;-90
2021/03/06 11:32:54;;;;;;;;;;;;;;;9.30;59.70;101233.97;4423742;32;19995;-91
2021/03/06 11:35:19;;;;;;;;;;;;;;;9.06;59.68;101237.50;4410837;32;20560;-92
2021/03/06 11:37:44;;;;;;;;;;;;;;;9.33;59.70;101220.97;4423644;32;20001;-91
2021/03/06 11:40:10;;;;;;;;;;;;;;;9.54;59.71;101220.91;4410650;32;20005;-91
2021/03/06 11:42:35;;;;;;;;;;;;;;;9.66;59.72;101214.75;4410716;32;20052;-90
2021/03/06 11:45:01;;;;;;;;;;;;;;;9.87;59.73;101221.59;4410614;32;19993;-90
2021/03/06 11:47:26;;;;;;;;;;;;;;;9.87;59.74;101214.66;4410605;32;20024;-91
2021/03/06 11:49:51;;;;;;;;;;;;;;;9.48;59.71;101216.59;4410315;32;20055;-91
2021/03/06 11:52:17;;;;;;;;;;;;;;;9.23;59.70;101222.75;4423123;32;20300;-90
2021/03/06 11:54:42;;;;;;;;;;;;;;;9.05;59.70;101227.97;4410461;32;19972;-90
2021/03/06 11:57:07;;;;;;;;;;;;;;;9.13;59.69;101208.91;4423350;32;20016;-90
2021/03/06 11:59:32;;;;;;;;;;;;;;;9.33;59.70;101214.03;4410776;32;19997;-90
2021/03/06 12:01:58;;;;;;;;;;;;;;;9.49;59.72;101205.31;4410591;32;20001;-90
2021/03/06 12:04:23;;;;;;;;;;;;;;;9.57;59.71;101199.22;4410602;32;19993;-91
2021/03/06 12:06:48;;;;;;;;;;;;;;;9.49;59.72;101199.25;4410258;32;19997;-91
2021/03/06 12:09:13;;;;;;;;;;;;;;;9.35;59.70;101194.09;4410101;32;28970;-91
2021/03/06 12:11:39;;;;;;;;;;;;;;;9.17;59.69;101194.16;4410746;32;27514;-91
2021/03/06 12:14:04;;;;;;;;;;;;;;;9.14;59.69;101188.97;4412225;32;20342;-91
2021/03/06 12:16:29;;;;;;;;;;;;;;;9.29;59.70;101180.28;4412454;32;20008;-92
2021/03/06 12:18:54;;;;;;;;;;;;;;;9.26;59.69;101188.09;4412152;32;19989;-91
2021/03/06 12:21:20;;;;;;;;;;;;;;;9.10;59.69;101189.87;4412374;32;20052;-91
2021/03/06 12:23:45;;;;;;;;;;;;;;;9.04;59.70;101193.34;4412432;32;20034;-91
2021/03/06 12:26:11;;;;;;;;;;;;;;;9.19;59.68;101192.41;4412127;32;20005;-92
2021/03/06 12:28:36;;;;;;;;;;;;;;;8.88;59.67;101200.31;4412018;32;20001;-91
2021/03/06 12:31:01;;;;;;;;;;;;;;;8.94;59.68;101178.66;4411902;32;21186;-92
2021/03/06 12:33:26;;;;;;;;;;;;;;;9.09;59.69;101177.75;4411449;32;28614;-91
2021/03/06 12:35:51;;;;;;;;;;;;;;;9.18;59.69;101169.91;4409287;32;20011;-92
2021/03/06 12:38:17;;;;;;;;;;;;;;;9.09;59.69;101182.94;4409672;32;20000;-92
2021/03/06 12:40:42;;;;;;;;;;;;;;;9.06;59.68;101175.16;4409060;32;22988;-90
2021/03/06 12:43:07;;;;;;;;;;;;;;;9.05;59.69;101163.03;4408933;32;29399;-91
2021/03/06 12:45:32;;;;;;;;;;;;;;;9.08;59.69;101165.63;4409570;32;20059;-90
2021/03/06 12:47:59;;;;;;;;;;;;;;;8.81;59.67;101180.41;4408976;32;26290;-89
2021/03/06 12:50:24;;;;;;;;;;;;;;;8.86;59.67;101181.25;4409529;32;19999;-90